DRI-NNSC Building Weather observations

Data are for 10 minute period ending at time listed.
 Day   Time   Solar   Ave.   Ave.  Ave.  Vector  Max.   Baro.   Total    
  of    of     Rad.   Air    Rel.  Wind   Wind   Wind  Press.  Precip.   
Year   Day            Temp.  Hum.  Speed  Dir.   Gust                    
2017   (PST)  Kw/m2    F      %     mph   deg.    mph    mb.     in.     
-------------------------------------------------------------------------
  17   18:20   0.00   29.1     0    2.7    54      4   850.9    0.00 
  17   18:30   0.00   28.8     0    2.6    48      4   851.0    0.00 
  17   18:40   0.00   28.8     0    3.6    53      5   850.9    0.00 
  17   18:50   0.00   28.6     0    3.1    56      4   851.0    0.00 
  17   19:00   0.00   28.5     0    3.4    48      4   851.0    0.00 
  17   19:10   0.00   28.6     0    2.6    37      4   850.9    0.00 
  17   19:20   0.00   28.5     0    1.6   315      4   851.0    0.00 
  17   19:30   0.00   28.1     0    1.2   336      3   851.0    0.00 
  17   19:40   0.00   28.2     0    2.5   341      4   851.1    0.00 
  17   19:50   0.00   28.7     0    1.6    84      3   850.9    0.00 
  17   20:00   0.00   28.9     0    2.0    80      3   850.8    0.00 
  17   20:10   0.00   28.7     0    1.6    56      3   850.8    0.00 
  17   20:20   0.00   28.9     0    0.7    72      2   850.8    0.00 
  17   20:30   0.00   28.2     0    1.4    77      4   850.7    0.00 
  17   20:40   0.00   27.9     0    1.9    95      4   850.7    0.00 
  17   20:50   0.00   28.2     0    0.6   125      2   850.7    0.00 
  17   21:00   0.00   28.1     0    0.7   245      2   850.6    0.00 
  17   21:10   0.00   27.7     0    1.2   332      3   850.6    0.00 
  17   21:20   0.00   27.9     0    0.3    80      1   850.5    0.00 
  17   21:30   0.00   27.8     0    0.6   327      2   850.6    0.00 
  17   21:40   0.00   27.7     0    2.3   316      4   850.6    0.00 
  17   21:50   0.00   27.6     0    2.0   332      4   850.6    0.00 
  17   22:00   0.00   28.3     0    0.8    66      2   850.4    0.00 
  17   22:10   0.00   28.3     0    1.0    94      2   850.4    0.00 
  17   22:20   0.00   28.5     0    0.7   128      2   850.5    0.00 
  17   22:30   0.00   27.9     0    1.3   277      3   850.4    0.00 
  17   22:40   0.00   27.4     0    0.8   132      3   850.4    0.00 
  17   22:50   0.00   28.0     0    1.8   128      5   850.4    0.00 
  17   23:00   0.00   28.0     0    1.5    68      4   850.4    0.00 
  17   23:10   0.00   28.2     0    1.5   149      3   850.3    0.00 
  17   23:20   0.00   28.1     0    1.1    95      2   850.2    0.00 
  17   23:30   0.00   27.9     0    1.5   355      4   850.2    0.00 
  17   23:40   0.00   27.7     0    2.1    28      4   850.1    0.00 
  17   23:50   0.00   27.9     0    2.4   353      4   850.1    0.00 
  18    0:00   0.00   28.7     0    1.2   243      3   850.1    0.00 
  18    0:10   0.00   29.1     0    1.1   221      3   850.1    0.00 
  18    0:20   0.00   28.9     0    1.3   206      4   850.1    0.00 
  18    0:30   0.00   28.8     0    1.8   303      3   850.1    0.00 
  18    0:40   0.00   28.7     0    1.8   323      4   850.0    0.00 
  18    0:50   0.00   29.4     0    2.2   315      5   849.9    0.00 
  18    1:00   0.00   30.1     0    1.8   176      5   850.0    0.00 
  18    1:10   0.00   29.6     0    1.9    94      4   850.1    0.00 
  18    1:20   0.00   29.7     0    2.1    73      5   850.1    0.00 
  18    1:30   0.00   29.0     0    6.4    64     10   849.7    0.00 
  18    1:40   0.00   28.7     0    6.6    76     11   849.6    0.00 
  18    1:50   0.00   28.3     0    4.4   109      8   849.7    0.00 
  18    2:00   0.00   28.2     0    1.7   172      5   849.5    0.00 
  18    2:10   0.00   28.3     0    2.2   145      5   849.3    0.00 
  18    2:20   0.00   28.2     0    5.5   280     14   849.2    0.00 
  18    2:30   0.00   29.7     0    5.6   322     12   849.1    0.00 
  18    2:40   0.00   28.6     0    2.9    30      6   848.8    0.00 
  18    2:50   0.00   29.1     0    3.9    36      8   848.7    0.00 
  18    3:00   0.00   30.2     0    3.4    86      6   848.4    0.00 
  18    3:10   0.00   30.0     0    2.3    39      6   848.3    0.00 
  18    3:20   0.00   30.0     0    2.4   255      4   848.3    0.00 
  18    3:30   0.00   30.4     0    1.8   288      4   848.3    0.00 
  18    3:40   0.00   30.8     0    3.3   320      5   848.3    0.00 
  18    3:50   0.00   30.1     0    3.9    44      8   848.5    0.00 
  18    4:00   0.00   28.9     0    1.6    36      3   848.4    0.00 
  18    4:10   0.00   30.0     0    2.0    23      4   848.4    0.00 
  18    4:20   0.00   30.0     0    3.1   150      5   848.4    0.00 
  18    4:30   0.00   29.5     0    4.3   142      9   848.1    0.00 
  18    4:40   0.00   29.3     0    4.1    62      7   847.7    0.00 
  18    4:50   0.00   29.0     0    3.9    88      8   847.6    0.00 
  18    5:00   0.00   28.7     0    2.3   101      6   847.5    0.00 
  18    5:10   0.00   28.5     0    1.9   239      4   847.4    0.00 
  18    5:20   0.00   29.3     0    3.5    33      7   847.3    0.00 
  18    5:30   0.00   31.9     0    5.4    54      8   847.3    0.00 
  18    5:40   0.00   32.3     0    7.0    57     11   847.2    0.00 
  18    5:50   0.00   33.2     0    7.5    61     13   847.0    0.00 
  18    6:00   0.00   31.5     0    7.1    41     12   847.0    0.00 
  18    6:10   0.00   36.6     0    2.8   258      7   846.8    0.00 
  18    6:20   0.00   34.4     0    3.2   116      9   847.0    0.00 
  18    6:30   0.00   30.2     0    1.9    71      8   846.7    0.00 
  18    6:40   0.00   32.0     0    2.8   285      7   846.8    0.00 
  18    6:50   0.00   32.3     0    3.5   318      5   846.7    0.00 
  18    7:00   0.00   34.1     0    4.4    60      8   846.4    0.00 
  18    7:10   0.00   33.1     0    6.4    56      8   846.4    0.00 
  18    7:20   0.00   34.4     0    4.7    30      8   846.7    0.00 
  18    7:30   0.00   38.2     0    4.6    32      6   846.6    0.00 
  18    7:40   0.00   37.0     0    5.0    66      8   846.7    0.00 
  18    7:50   0.01   38.8     0    2.8    45      5   846.7    0.00 
  18    8:00   0.01   39.0     0    1.9   212      6   846.7    0.00 
  18    8:10   0.01   34.3     0    6.2    76     11   846.5    0.00 
  18    8:20   0.01   34.1     0    3.6    61      9   846.0    0.00 
  18    8:30   0.10   38.0     0    4.2    71      7   845.7    0.00 
  18    8:40   0.05   37.4     0    2.4    89      5   845.5    0.00 
  18    8:50   0.14   37.8     0    3.3    98      6   845.2    0.00 
  18    9:00   0.12   38.0     0    1.2    57      4   845.7    0.00 
  18    9:10   0.10   36.7     0    3.2   322      6   845.7    0.00 
  18    9:20   0.11   37.8     0    4.3    59      6   845.1    0.00 
  18    9:30   0.09   36.8     0    4.5    66      8   845.1    0.00 
  18    9:40   0.07   37.9     0    4.6    54      7   844.7    0.00 
  18    9:50   0.07   37.8     0    5.2    47      7   844.9    0.00 
  18   10:00   0.06   37.8     0    2.9   345      5   845.4    0.00 
  18   10:10   0.04   39.8     0    2.4    51      5   845.0    0.00 
  18   10:20   0.06   38.7     0    5.3    60      8   845.0    0.00 
  18   10:30   0.09   39.5     0    5.4    30      8   845.0    0.01 
  18   10:40   0.11   41.3     0    4.3    49      6   844.5    0.00 
  18   10:50   0.13   39.6     0    3.9   128      9   844.3    0.00 
  18   11:00   0.12   38.0     0    2.9   150      7   844.2    0.01 
  18   11:10   0.14   38.4     0    3.4    36      7   844.0    0.00 
  18   11:20   0.17   39.8     0    3.5   316      7   844.3    0.01 
  18   11:30   0.16   40.1     0    5.2   337      8   844.5    0.00 
  18   11:40   0.12   41.1     0    3.7    45     10   844.4    0.01 
  18   11:50   0.11   39.3     0    4.1   119      9   844.3    0.01 
  18   12:00   0.11   41.7     0    4.9   203     11   844.0    0.01 
  18   12:10   0.14   39.1     0    5.2    70     10   843.8    0.00 
  18   12:20   0.16   38.8     0    6.8   109     16   843.4    0.01 
  18   12:30   0.14   39.6     0    7.3   153     14   843.2    0.01 
  18   12:40   0.12   38.2     0    6.5   148     13   843.0    0.01 
  18   12:50   0.13   36.7     0    4.8   160      8   843.0    0.00 
  18   13:00   0.12   37.3     0    4.7   160     11   842.9    0.00 
  18   13:10   0.13   38.2     0    3.3   108      7   842.5    0.01 
  18   13:20   0.14   39.0     0    3.8    92      8   842.1    0.00 
  18   13:30   0.13   39.9     0    3.1    69      6   841.9    0.01 
  18   13:40   0.12   40.7     0    2.8    85      8   841.7    0.00 
  18   13:50   0.09   40.9     0    3.8   111      7   841.7    0.01 
  18   14:00   0.09   40.9     0    1.7   164      4   841.4    0.00 
  18   14:10   0.09   40.9     0    5.5   217     20   841.2    0.01 
  18   14:20   0.09   41.6     0   12.1   227     21   841.3    0.01 
  18   14:30   0.09   41.6     0   11.0   217     21   841.2    0.02 
  18   14:40   0.08   41.7     0    9.9   221     20   841.0    0.01 
  18   14:50   0.07   41.8     0   10.9   221     20   840.9    0.00 
  18   15:00   0.08   41.2     0    9.4   185     22   840.9    0.01 
  18   15:10   0.09   40.9     0    5.5   104     12   840.7    0.00 
  18   15:20   0.09   41.5     0    3.7   351      8   840.7    0.00 
  18   15:30   0.07   41.2     0    5.0     7      9   840.5    0.00 
  18   15:40   0.07   41.3     0    3.6   336      8   839.9    0.00 
  18   15:50   0.05   41.4     0    3.6   286      6   839.9    0.00 
  18   16:00   0.05   41.3     0    3.8    60     10   839.7    0.00 
  18   16:10   0.04   40.9     0    2.3   350      6   839.9    0.00 
  18   16:20   0.03   40.7     0    3.7   356      6   840.0    0.00 
  18   16:30   0.01   41.1     0    4.1   286     10   840.0    0.00 
  18   16:40   0.01   41.0     0    4.5   257      8   840.0    0.01 
  18   16:50   0.00   40.2     0    2.1   225      4   839.9    0.01 
  18   17:00   0.00   39.4     0    2.8   202      5   839.8    0.01 
  18   17:10   0.00   38.9     0    4.0   188      9   839.6    0.01 
  18   17:20   0.00   38.8     0    2.6   162      6   839.4    0.01 
  18   17:30   0.00   38.5     0    2.2   115      6   839.2    0.00 
  18   17:40   0.00   38.3     0    2.1   120      6   839.1    0.01 
  18   17:50   0.00   38.4     0    1.3   150      5   839.0    0.00 
  18   18:00   0.00   38.3     0    3.2   200      9   838.9    0.01 
  18   18:10   0.00   38.4     0    7.0   212     12   838.9    0.00 

Return to NNSC graphs page.


Western Regional Climate Center,wrcc@dri.edu